• Join FlightAware (Why Join?)
  • Login
  • US Flag 
02:55PM EDT


 

Airport Tracker/Info


-or-


 

Live Flight TrackerFlight Track Log ✈ CPZ5753 ✈ 07-May-2012 ✈ KPHL - KMSP

Flight Track Log - Related Links

Times and Time Zones

All times are in EDT time to prevent confusion due to time zone crossing. See the CPZ5753 flight status page for this flight to view local times or setup timezone preferences in your user account.

Time Position Orientation Groundspeed Altitude Reporting Facility
EDT Latitude Longitude Course Direction KTS MPH feet Rate Location/Type
11:47AM 39.8667 -75.2833 287° West 148 170 700  Level Philadelphia TRACON
11:52AM 39.9400 -75.5894 North 296 341 10,000 1,560 Climbing FAA TRACON SMA TRACON (SMA)
11:52AM 39.9989 -75.5831 North 307 353 10,000 900 Level FAA TRACON SMA TRACON (SMA)
11:53AM 40.0853 -75.5744 North 310 357 11,500 1,680 Climbing FAA TRACON SMA TRACON (SMA)
11:54AM 40.1386 -75.5692 North 311 358 12,800 1,560 Climbing FAA TRACON SMA TRACON (SMA)
11:55AM 40.2003 -75.5636 328° Northwest 320 368 13,600 1,920 Climbing FAA TRACON SMA TRACON (SMA)
11:55AM 40.2511 -75.6044 311° West 310 357 15,400 2,040 Climbing FAA TRACON SMA TRACON (SMA)
11:56AM 40.3089 -75.6914 311° West 315 362 17,000 1,440 Climbing FAA TRACON SMA TRACON (SMA)
11:57AM 40.3486 -75.7511 310° West 317 365 17,800 720 Climbing FAA TRACON SMA TRACON (SMA)
11:58AM 40.3578 -75.7656 306° West 318 366 18,000 1,500 Climbing FAA TRACON SMA TRACON (SMA)
11:59AM 40.4411 -75.9142 283° West 333 383 20,600 2,040 Climbing New York Center
12:00PM 40.4628 -76.0386 281° West 339 390 22,500 1,680 Climbing New York Center
12:01PM 40.4819 -76.1683 281° West 350 403 24,100 1,500 Climbing New York Center
12:02PM 40.5008 -76.2981 283° West 362 417 25,600 1,320 Climbing New York Center
12:03PM 40.5239 -76.4311 282° West 369 425 26,800 1,200 Climbing New York Center
12:04PM 40.5464 -76.5667 278° West 376 433 28,100 1,200 Climbing New York Center
12:05PM 40.5606 -76.7044 277° West 376 433 29,200 900 Climbing New York Center
12:06PM 40.5742 -76.8450 277° West 381 438 30,000 720 Climbing New York Center
12:07PM 40.5875 -76.9883 277° West 392 451 30,700 840 Climbing New York Center
12:08PM 40.6008 -77.1317 276° West 392 451 31,700 900 Climbing New York Center
12:09PM 40.6119 -77.2722 277° West 392 451 32,600 720 Climbing New York Center
12:10PM 40.6261 -77.4269 276° West 387 445 33,400 420 Climbing New York Center
12:12PM 40.6511 -77.7478 276° West 399 459 34,000 180 Climbing Cleveland Center
12:13PM 40.6631 -77.8950 276° West 405 466 34,000  Level Cleveland Center
12:14PM 40.6747 -78.0397 276° West 405 466 34,000  Level Cleveland Center
12:15PM 40.6861 -78.1872 276° West 405 466 34,000  Level Cleveland Center
12:16PM 40.6975 -78.3319 275° West 405 466 34,000  Level Cleveland Center
12:17PM 40.7067 -78.4794 277° West 405 466 34,000  Level Cleveland Center
12:18PM 40.7197 -78.6269 275° West 405 466 34,000  Level Cleveland Center
12:19PM 40.7303 -78.7747 275° West 405 466 34,000  Level Cleveland Center
12:20PM 40.7389 -78.9197 276° West 405 466 34,000  Level Cleveland Center
12:21PM 40.7514 -79.0675 275° West 405 466 34,000  Level Cleveland Center
12:22PM 40.7614 -79.2125 275° West 405 466 34,000  Level Cleveland Center
12:23PM 40.7714 -79.3575 275° West 405 466 34,000  Level Cleveland Center
12:24PM 40.7814 -79.5056 276° West 405 466 34,000  Level Cleveland Center
12:25PM 40.7931 -79.6506 274° West 405 466 34,000  Level Cleveland Center
12:26PM 40.8003 -79.7986 275° West 405 466 34,000  Level Cleveland Center
12:27PM 40.8094 -79.9411 274° West 405 466 34,000  Level Cleveland Center
12:28PM 40.8167 -80.0919 278° West 405 466 34,000  Level Cleveland Center
12:29PM 40.8317 -80.2347 288° West 405 466 34,000  Level Cleveland Center
12:30PM 40.8592 -80.3442 293° West 405 466 34,000  Level Cleveland Center
12:31PM 40.9094 -80.5033 290° West 393 452 34,000  Level Cleveland Center
12:32PM 40.9469 -80.6408 290° West 399 459 34,000  Level Cleveland Center
12:33PM 40.9842 -80.7783 291° West 399 459 34,000  Level Cleveland Center
12:34PM 41.0236 -80.9133 288° West 399 459 34,000  Level Cleveland Center
12:35PM 41.0583 -81.0539 290° West 399 459 34,000  Level Cleveland Center
12:36PM 41.1036 -81.2197 290° West 405 466 34,000  Level Cleveland Center
12:37PM 41.1422 -81.3578 290° West 405 466 34,000  Level Cleveland Center
12:38PM 41.1808 -81.4964 290° West 405 466 34,000  Level Cleveland Center
12:39PM 41.2192 -81.6375 289° West 410 472 34,000  Level Cleveland Center
12:40PM 41.2553 -81.7764 289° West 410 472 34,000  Level Cleveland Center
12:41PM 41.2914 -81.9150 289° West 405 466 34,000  Level Cleveland Center
12:42PM 41.3272 -82.0542 292° West 405 466 34,000  Level Cleveland Center
12:43PM 41.3692 -82.1906 307° West 405 466 34,000  Level Cleveland Center
12:44PM 41.4361 -82.3086 305° West 398 458 34,000  Level Cleveland Center
12:45PM 41.4989 -82.4267 306° West 398 458 34,000  Level Cleveland Center
12:46PM 41.5636 -82.5453 305° West 398 458 34,000  Level Cleveland Center
12:47PM 41.6264 -82.6639 306° West 398 458 34,000  Level Cleveland Center
12:48PM 41.6886 -82.7797 307° West 393 452 34,000  Level Cleveland Center
12:49PM 41.7531 -82.8961 305° West 393 452 34,000  Level Cleveland Center
12:50PM 41.8172 -83.0183 304° West 393 452 34,000  Level Cleveland Center
12:51PM 41.8794 -83.1406 307° West 393 452 34,000  Level Cleveland Center
12:52PM 41.9394 -83.2492 304° West 399 459 34,000  Level Cleveland Center
12:53PM 42.0011 -83.3717 304° West 399 459 34,000  Level Cleveland Center
12:54PM 42.0606 -83.4919 294° West 399 459 34,000  Level Cleveland Center
12:55PM 42.1050 -83.6283 298° West 393 452 34,000  Level Cleveland Center
12:56PM 42.1558 -83.7569 296° West 393 452 34,000  Level Cleveland Center
12:57PM 42.2042 -83.8911 297° West 393 452 34,000  Level Cleveland Center
12:58PM 42.2583 -84.0369 297° West 393 452 34,000  Level Cleveland Center
12:59PM 42.3064 -84.1631 295° West 388 447 34,000  Level Cleveland Center
01:00PM 42.3522 -84.2950 297° West 389 448 34,000  Level Cleveland Center
01:02PM 42.4597 -84.5758 296° West 380 437 34,000  Level Chicago Center
01:03PM 42.5069 -84.7075 296° West 385 443 34,000  Level Chicago Center
01:04PM 42.5539 -84.8367 296° West 385 443 34,000  Level Chicago Center
01:05PM 42.6006 -84.9686 296° West 390 449 34,000  Level Chicago Center
01:06PM 42.6472 -85.0983 296° West 390 449 34,000  Level Chicago Center
01:07PM 42.6936 -85.2308 293° West 390 449 34,000  Level Chicago Center
01:08PM 42.7311 -85.3497 294° West 390 449 34,000  Level Chicago Center
01:09PM 42.7756 -85.4856 293° West 390 449 34,000  Level Chicago Center
01:10PM 42.8175 -85.6217 293° West 390 449 34,000  Level Chicago Center
01:11PM 42.8592 -85.7553 292° West 390 449 34,000  Level Chicago Center
01:12PM 42.8989 -85.8919 292° West 390 449 34,000  Level Chicago Center
01:13PM 42.9450 -86.0453 294° West 390 449 34,000  Level Chicago Center
01:14PM 42.9906 -86.1850 293° West 397 457 34,000  Level Chicago Center
01:15PM 43.0339 -86.3219 294° West 397 457 34,000  Level Chicago Center
01:16PM 43.0725 -86.4422 293° West 392 451 34,000  Level Chicago Center
01:17PM 43.1156 -86.5797 292° West 392 451 34,000  Level Chicago Center
01:18PM 43.1561 -86.7172 293° West 392 451 34,000  Level Chicago Center
01:19PM 43.1989 -86.8550 291° West 392 451 34,000  Level Chicago Center
01:20PM 43.2372 -86.9931 293° West 392 451 34,000  Level Chicago Center
01:21PM 43.2839 -87.1425 293° West 392 451 34,000  Level Chicago Center
01:22PM 43.3261 -87.2808 291° West 392 451 34,000  Level Chicago Center
01:23PM 43.3636 -87.4139 292° West 380 437 34,000  Level Chicago Center
01:24PM 43.4033 -87.5497 292° West 375 432 34,000  Level Chicago Center
01:25PM 43.4450 -87.6886 292° West 385 443 34,000  Level Chicago Center
01:26PM 43.4844 -87.8250 289° West 390 449 34,000  Level Chicago Center
01:27PM 43.5197 -87.9644 253° West 390 449 34,000  Level Chicago Center
01:28PM 43.4897 -88.0967 248° West 363 418 34,000  Level Chicago Center
01:29PM 43.4517 -88.2233 274° West 368 423 34,000  Level Chicago Center
01:30PM 43.4589 -88.3547 300° West 368 423 34,000  Level Chicago Center
01:31PM 43.5164 -88.4939 300° West 434 499 34,000  Level Chicago Center
01:32PM 43.5778 -88.6422 297° West 422 486 34,000  Level Chicago Center
01:33PM 43.6264 -88.7764 299° West 402 463 34,000  Level Chicago Center
01:34PM 43.6811 -88.9136 298° West 397 457 34,000  Level Chicago Center
01:35PM 43.7336 -89.0511 298° West 404 465 34,000  Level Chicago Center
01:36PM 43.7861 -89.1889 298° West 404 465 34,000  Level Chicago Center
01:37PM 43.8403 -89.3297 298° West 404 465 34,000  Level Chicago Center
01:38PM 43.8925 -89.4678 297° West 399 459 34,000  Level Chicago Center
01:40PM 43.9633 -89.6617 298° West 425 489 34,000  Level Minneapolis Center
01:41PM 44.0161 -89.8025 300° West 416 479 34,000  Level Minneapolis Center
01:42PM 44.0725 -89.9375 301° West 416 479 34,000  Level Minneapolis Center
01:43PM 44.1328 -90.0758 301° West 416 479 34,000  Level Minneapolis Center
01:44PM 44.1933 -90.2169 300° West 416 479 34,000  Level Minneapolis Center
01:45PM 44.2514 -90.3558 302° West 416 479 34,000  Level Minneapolis Center
01:46PM 44.3133 -90.4947 300° West 416 479 34,000  Level Minneapolis Center
01:47PM 44.3711 -90.6342 300° West 416 479 34,000  Level Minneapolis Center
01:48PM 44.4289 -90.7736 302° West 416 479 34,000 -720 Level Minneapolis Center
01:49PM 44.4903 -90.9133 299° West 416 479 32,600 -1,920 Descending Minneapolis Center
01:50PM 44.5456 -91.0508 301° West 416 479 30,300 -2,280 Descending Minneapolis Center
01:51PM 44.6067 -91.1942 299° West 411 473 28,100 -2,220 Descending Minneapolis Center
01:52PM 44.6594 -91.3292 301° West 407 468 25,900 -2,160 Descending Minneapolis Center
01:53PM 44.7181 -91.4672 300° West 407 468 23,800 -1,980 Descending Minneapolis Center
01:54PM 44.7639 -91.5797 300° West 392 451 22,000 -1,860 Descending Minneapolis Center
01:55PM 44.8136 -91.7011 299° West 373 429 20,100 -1,980 Descending Minneapolis Center
01:56PM 44.8633 -91.8253 307° West 363 418 18,100 -2,220 Descending Minneapolis Center
01:56PM 44.9075 -91.9086 297° West 378 435 16,600 -2,160 Descending FAA TRACON SMA TRACON (SMA)
01:57PM 44.9350 -91.9839 300° West 358 412 15,500 -1,800 Descending FAA TRACON SMA TRACON (SMA)
01:58PM 44.9689 -92.0675 298° West 352 405 14,200 -1,860 Descending FAA TRACON SMA TRACON (SMA)
01:58PM 44.9992 -92.1492 299° West 343 395 13,000 -1,740 Descending FAA TRACON SMA TRACON (SMA)
01:59PM 45.0272 -92.2197 288° West 336 387 11,900 -1,500 Descending FAA TRACON SMA TRACON (SMA)
02:00PM 45.0458 -92.3006 262° West 321 369 11,000 -720 Descending FAA TRACON SMA TRACON (SMA)
02:00PM 45.0375 -92.3856 257° West 316 364 11,000 -300 Level FAA TRACON SMA TRACON (SMA)
02:01PM 45.0258 -92.4581 248° West 305 351 10,600 -840 Descending FAA TRACON SMA TRACON (SMA)
02:02PM 45.0064 -92.5272 244° Southwest 270 311 9,900 -1,500 Descending FAA TRACON SMA TRACON (SMA)
02:02PM 44.9839 -92.5928 245° Southwest 265 305 8,700 -1,740 Descending FAA TRACON SMA TRACON (SMA)
02:03PM 44.9650 -92.6500 244° Southwest 263 303 7,600 -1,260 Descending FAA TRACON SMA TRACON (SMA)
02:04PM 44.9436 -92.7128 244° Southwest 256 295 7,000 -720 Descending FAA TRACON SMA TRACON (SMA)
02:04PM 44.9219 -92.7747 245° Southwest 254 292 6,700 -1,020 Descending FAA TRACON SMA TRACON (SMA)
02:05PM 44.9042 -92.8297 244° Southwest 251 289 5,700 -1,740 Descending FAA TRACON SMA TRACON (SMA)
02:06PM 44.8833 -92.8911 245° Southwest 251 289 4,400 -1,500 Descending FAA TRACON SMA TRACON (SMA)
02:06PM 44.8636 -92.9511 244° Southwest 242 278 3,700 -780 Descending FAA TRACON SMA TRACON (SMA)
02:07PM 44.8472 -92.9975 257° West 210 242 3,400 -600 Descending FAA TRACON SMA TRACON (SMA)
02:08PM 44.8392 -93.0469 276° West 186 214 2,900 -660 Descending FAA TRACON SMA TRACON (SMA)
02:08PM 44.8431 -93.0953 293° West 178 205 2,600 -720 Descending FAA TRACON SMA TRACON (SMA)
02:09PM 44.8536 -93.1303 302° West 156 180 2,000 -900 Descending FAA TRACON SMA TRACON (SMA)
02:10PM 44.8669 -93.1603 301° West 128 147 1,400 -780 Descending FAA TRACON SMA TRACON (SMA)
02:10PM 44.8783 -93.1869 301° West 129 148 1,000 -600 Descending FAA TRACON SMA TRACON (SMA)